createdAt,value
2019-03-04T00:00:45.587Z,13.48
2019-03-04T00:03:12.289Z,13.97
2019-03-04T00:05:38.556Z,14.14
2019-03-04T00:08:05.145Z,14.11
2019-03-04T00:10:31.437Z,14.02
2019-03-04T00:12:57.602Z,14.20
2019-03-04T00:15:23.768Z,14.15
2019-03-04T00:17:50.053Z,14.16
2019-03-04T00:20:16.209Z,13.98
2019-03-04T00:22:42.372Z,14.05
2019-03-04T00:25:08.570Z,13.90
2019-03-04T00:27:34.723Z,13.69
2019-03-04T00:30:00.883Z,13.52
2019-03-04T00:32:27.129Z,13.58
2019-03-04T00:34:53.383Z,13.52
2019-03-04T00:37:19.550Z,13.38
2019-03-04T00:39:45.741Z,13.56
2019-03-04T00:42:11.894Z,13.60
2019-03-04T00:44:38.052Z,13.61
2019-03-04T00:47:04.335Z,13.58
2019-03-04T00:49:30.492Z,13.40
2019-03-04T00:51:56.654Z,13.74
2019-03-04T00:54:22.855Z,13.97
2019-03-04T00:56:49.004Z,13.82
2019-03-04T00:59:15.158Z,13.88
2019-03-04T01:01:41.352Z,14.08
2019-03-04T01:04:07.605Z,13.82
2019-03-04T01:06:33.881Z,13.64
2019-03-04T01:09:00.084Z,14.04
2019-03-04T01:11:26.228Z,14.02
2019-03-04T01:13:52.387Z,14.03
2019-03-04T01:16:18.576Z,14.22
2019-03-04T01:18:44.733Z,13.82
2019-03-04T01:21:10.891Z,14.29
2019-03-04T01:23:37.086Z,14.54
2019-03-04T01:26:03.243Z,14.73
2019-03-04T01:28:29.418Z,14.24
2019-03-04T01:30:55.601Z,14.12
2019-03-04T01:33:21.869Z,14.32
2019-03-04T01:35:48.131Z,14.41
2019-03-04T01:38:14.319Z,14.16
2019-03-04T01:40:40.479Z,14.09
2019-03-04T01:43:06.735Z,14.15
2019-03-04T01:45:32.918Z,14.10
2019-03-04T01:47:59.085Z,13.97
2019-03-04T01:50:25.248Z,13.80
2019-03-04T01:52:51.432Z,13.65
2019-03-04T01:55:17.906Z,13.42
2019-03-04T01:57:44.161Z,13.55
2019-03-04T02:00:16.138Z,13.72
2019-03-04T02:02:43.098Z,13.92
2019-03-04T02:05:09.356Z,13.85
2019-03-04T02:07:35.636Z,14.08
2019-03-04T02:10:03.611Z,14.11
2019-03-04T02:12:29.769Z,14.21
2019-03-04T02:14:55.966Z,14.27
2019-03-04T02:17:22.139Z,13.63
2019-03-04T02:19:48.272Z,13.65
2019-03-04T02:22:14.578Z,14.11
2019-03-04T02:24:40.732Z,14.64
2019-03-04T02:27:06.901Z,14.44
2019-03-04T02:29:33.206Z,14.21
2019-03-04T02:31:59.357Z,14.02
2019-03-04T02:34:25.668Z,14.24
2019-03-04T02:36:51.887Z,14.36
2019-03-04T02:39:18.029Z,14.67
2019-03-04T02:41:44.199Z,14.55
2019-03-04T02:44:10.389Z,14.48
2019-03-04T02:46:36.547Z,14.35
2019-03-04T02:49:03.009Z,14.32
2019-03-04T02:51:29.293Z,14.30
2019-03-04T02:53:55.451Z,14.47
2019-03-04T02:56:21.719Z,14.52
2019-03-04T02:58:47.931Z,14.85
2019-03-04T03:01:14.502Z,14.92
2019-03-04T03:03:40.663Z,14.97
2019-03-04T03:06:06.849Z,15.33
2019-03-04T03:08:33.280Z,15.30
2019-03-04T03:10:59.441Z,15.58
2019-03-04T03:13:25.626Z,15.26
2019-03-04T03:15:51.778Z,15.43
2019-03-04T03:18:17.935Z,14.99
2019-03-04T03:20:44.135Z,14.75
2019-03-04T03:23:10.297Z,14.88
2019-03-04T03:25:36.465Z,15.17
2019-03-04T03:28:02.760Z,13.98
2019-03-04T03:30:28.923Z,13.77
2019-03-04T03:32:55.286Z,14.02
2019-03-04T03:35:21.527Z,13.30
2019-03-04T03:37:47.701Z,13.07
2019-03-04T03:40:18.950Z,13.12
2019-03-04T03:42:45.240Z,12.78
2019-03-04T03:45:11.390Z,13.36
2019-03-04T03:47:37.684Z,13.39
2019-03-04T03:50:07.570Z,13.68
2019-03-04T03:52:33.708Z,13.15
2019-03-04T03:54:59.863Z,13.41
2019-03-04T03:57:26.055Z,13.23
2019-03-04T03:59:52.232Z,13.34
2019-03-04T04:02:18.394Z,13.41
2019-03-04T04:04:44.593Z,13.16
2019-03-04T04:07:10.760Z,13.17
2019-03-04T04:09:37.023Z,13.11
2019-03-04T04:12:03.205Z,13.14
2019-03-04T04:14:29.577Z,13.24
2019-03-04T04:16:55.719Z,12.99
2019-03-04T04:19:21.924Z,13.18
2019-03-04T04:21:48.190Z,12.95
2019-03-04T04:24:14.463Z,12.96
2019-03-04T04:26:40.660Z,13.06
2019-03-04T04:29:08.729Z,13.01
2019-03-04T04:31:34.995Z,13.17
2019-03-04T04:34:01.190Z,13.01
2019-03-04T04:36:28.249Z,13.14
2019-03-04T04:38:54.522Z,12.92
2019-03-04T04:41:20.709Z,13.12
2019-03-04T04:43:46.870Z,13.10
2019-03-04T04:46:13.018Z,12.72
2019-03-04T04:48:39.204Z,12.70
2019-03-04T04:51:05.469Z,12.81
2019-03-04T04:53:31.725Z,13.29
2019-03-04T04:55:57.927Z,13.42
2019-03-04T04:58:24.081Z,13.64
2019-03-04T05:00:50.244Z,13.67
2019-03-04T05:03:16.445Z,14.00
2019-03-04T05:05:42.700Z,14.09
2019-03-04T05:08:08.963Z,14.63
2019-03-04T05:10:35.160Z,14.33
2019-03-04T05:13:01.316Z,13.87
2019-03-04T05:15:27.497Z,14.26
2019-03-04T05:17:53.687Z,13.81
2019-03-04T05:20:21.677Z,14.49
2019-03-04T05:22:47.945Z,14.31
2019-03-04T05:25:14.222Z,14.68
2019-03-04T05:27:40.481Z,15.29
2019-03-04T05:30:10.237Z,14.96
2019-03-04T05:32:36.433Z,15.41
2019-03-04T05:35:04.206Z,16.59
2019-03-04T05:37:30.517Z,17.89
2019-03-04T05:39:56.715Z,17.66
2019-03-04T05:42:24.542Z,17.88
2019-03-04T05:44:50.827Z,17.26
2019-03-04T05:47:17.045Z,17.73
2019-03-04T05:49:43.204Z,17.05
2019-03-04T05:52:09.459Z,17.37
2019-03-04T05:54:35.650Z,16.97
2019-03-04T05:57:01.837Z,17.41
2019-03-04T05:59:28.001Z,17.62
2019-03-04T06:01:57.908Z,17.61
2019-03-04T06:04:24.061Z,17.46
2019-03-04T06:06:52.134Z,18.81
2019-03-04T06:09:18.841Z,18.50
2019-03-04T06:11:44.999Z,18.30
2019-03-04T06:14:11.156Z,18.12
2019-03-04T06:16:46.799Z,18.32
2019-03-04T06:19:05.400Z,18.86
2019-03-04T06:21:31.564Z,18.14
2019-03-04T06:23:57.758Z,18.16
2019-03-04T06:26:23.931Z,18.56
2019-03-04T06:28:50.204Z,18.15
2019-03-04T06:31:16.515Z,16.68
2019-03-04T06:33:42.660Z,16.17
2019-03-04T06:36:08.941Z,16.07
2019-03-04T06:38:35.183Z,16.39
2019-03-04T06:41:01.340Z,16.53
2019-03-04T06:43:27.604Z,16.88
2019-03-04T06:45:53.804Z,16.76
2019-03-04T06:48:20.105Z,17.17
2019-03-04T06:51:14.909Z,16.34
2019-03-04T06:53:47.556Z,16.56
2019-03-04T06:56:31.737Z,16.96
2019-03-04T06:59:01.508Z,17.67
2019-03-04T07:01:31.290Z,16.97
2019-03-04T07:04:01.095Z,16.31
2019-03-04T07:06:27.263Z,17.03
2019-03-04T07:08:59.488Z,16.08
2019-03-04T07:11:25.673Z,15.67
2019-03-04T07:13:51.843Z,17.46
2019-03-04T07:16:18.015Z,17.93
2019-03-04T07:18:44.207Z,19.11
2019-03-04T07:21:10.371Z,19.26
2019-03-04T07:23:36.664Z,19.86
2019-03-04T07:26:02.868Z,19.57
2019-03-04T07:28:29.025Z,18.61
2019-03-04T07:30:55.287Z,19.10
2019-03-04T07:33:21.481Z,18.88
2019-03-04T07:35:47.651Z,19.47
2019-03-04T07:38:23.205Z,19.64
2019-03-04T07:40:49.495Z,20.71
2019-03-04T07:43:15.655Z,20.76
2019-03-04T07:45:41.824Z,21.85
2019-03-04T07:48:08.031Z,20.98
2019-03-04T07:50:34.208Z,21.50
2019-03-04T07:53:00.376Z,21.76
2019-03-04T07:55:26.578Z,21.40
2019-03-04T07:57:52.856Z,22.74
2019-03-04T08:00:19.136Z,22.27
2019-03-04T08:02:45.432Z,23.57
2019-03-04T08:05:12.602Z,22.91
2019-03-04T08:07:41.469Z,24.12
2019-03-04T08:10:33.730Z,24.22
2019-03-04T08:13:15.553Z,23.70
2019-03-04T08:15:41.756Z,21.81
2019-03-04T08:18:07.913Z,22.28
2019-03-04T08:20:34.187Z,23.12
2019-03-04T08:23:00.391Z,23.37
2019-03-04T08:25:26.558Z,23.29
2019-03-04T08:27:52.714Z,22.19
2019-03-04T08:30:20.726Z,22.20
2019-03-04T08:32:46.891Z,21.53
2019-03-04T08:35:13.149Z,22.38
2019-03-04T08:37:39.353Z,22.72
2019-03-04T08:40:08.925Z,22.02
2019-03-04T08:42:35.098Z,22.10
2019-03-04T08:45:01.285Z,22.54
2019-03-04T08:47:27.449Z,22.95
2019-03-04T08:49:53.606Z,23.23
2019-03-04T08:52:19.817Z,22.92
2019-03-04T08:54:45.987Z,22.22
2019-03-04T08:57:12.169Z,22.49
2019-03-04T08:59:38.355Z,23.96
2019-03-04T09:02:05.527Z,22.68
2019-03-04T09:04:31.680Z,22.51
2019-03-04T09:06:57.975Z,22.97
2019-03-04T09:09:24.399Z,23.11
2019-03-04T09:11:50.551Z,23.26
2019-03-04T09:14:16.877Z,23.49
2019-03-04T09:16:43.044Z,24.09
2019-03-04T09:19:09.304Z,23.55
2019-03-04T09:21:35.597Z,23.87
2019-03-04T09:24:01.861Z,23.16
2019-03-04T09:26:28.022Z,23.56
2019-03-04T09:28:54.323Z,24.62
2019-03-04T09:31:20.472Z,25.04
2019-03-04T09:33:46.641Z,25.61
2019-03-04T09:36:12.844Z,25.07
2019-03-04T09:38:39.004Z,24.60
2019-03-04T09:41:05.157Z,25.32
2019-03-04T09:43:31.383Z,25.02
2019-03-04T09:45:57.691Z,24.32
2019-03-04T09:48:23.847Z,23.76
2019-03-04T09:50:50.139Z,24.35
2019-03-04T09:53:16.298Z,22.87
2019-03-04T09:55:42.465Z,23.50
2019-03-04T09:58:08.771Z,24.21
2019-03-04T10:00:44.740Z,25.39
2019-03-04T10:03:40.282Z,24.99
2019-03-04T10:06:19.246Z,23.67
2019-03-04T10:09:01.140Z,23.09
2019-03-04T10:11:55.213Z,23.42
2019-03-04T10:14:27.974Z,25.25
2019-03-04T10:17:03.538Z,25.58
2019-03-04T10:19:56.313Z,27.02
2019-03-04T10:22:29.103Z,24.69
2019-03-04T10:25:22.884Z,25.05
2019-03-04T10:28:13.742Z,26.67
2019-03-04T10:30:52.749Z,26.78
2019-03-04T10:33:25.468Z,26.89
2019-03-04T10:36:01.059Z,26.72
2019-03-04T10:38:43.130Z,26.38
2019-03-04T10:41:15.981Z,28.29
2019-03-04T10:43:58.144Z,28.86
2019-03-04T10:46:44.807Z,25.70
2019-03-04T10:49:10.967Z,26.24
2019-03-04T10:51:37.122Z,27.76
2019-03-04T10:54:03.406Z,28.11
2019-03-04T10:56:29.583Z,27.23
2019-03-04T10:58:55.740Z,28.01
2019-03-04T11:01:30.182Z,28.31
2019-03-04T11:03:50.213Z,28.74
2019-03-04T11:06:16.367Z,27.20
2019-03-04T11:08:42.671Z,28.45
2019-03-04T11:11:08.828Z,28.09
2019-03-04T11:13:34.984Z,28.22
2019-03-04T11:16:01.277Z,28.89
2019-03-04T11:18:27.547Z,28.67
2019-03-04T11:20:53.804Z,26.26
2019-03-04T11:23:20.110Z,25.94
2019-03-04T11:25:46.295Z,28.09
2019-03-04T11:28:12.461Z,28.54
2019-03-04T11:30:38.754Z,28.65
2019-03-04T11:33:04.920Z,26.81
2019-03-04T11:35:31.083Z,26.78
2019-03-04T11:37:57.267Z,28.04
2019-03-04T11:40:35.138Z,27.91
2019-03-04T11:43:01.335Z,27.40
2019-03-04T11:45:27.599Z,26.93
2019-03-04T11:47:53.858Z,27.40
2019-03-04T11:50:20.058Z,27.02
2019-03-04T11:52:46.226Z,27.63
2019-03-04T11:55:15.083Z,25.49
2019-03-04T11:57:41.282Z,26.08
2019-03-04T12:00:36.145Z,27.23
2019-03-04T12:03:02.452Z,26.52
2019-03-04T12:05:28.615Z,27.59
2019-03-04T12:07:54.777Z,28.06
2019-03-04T12:10:21.416Z,29.42
2019-03-04T12:12:47.577Z,26.03
2019-03-04T12:15:18.472Z,27.62
2019-03-04T12:17:44.762Z,27.06
2019-03-04T12:20:12.359Z,26.28
2019-03-04T12:22:38.520Z,27.71
2019-03-04T12:25:08.327Z,25.98
2019-03-04T12:27:34.482Z,26.54
2019-03-04T12:30:00.642Z,25.45
2019-03-04T12:32:27.952Z,26.18
2019-03-04T12:34:54.168Z,26.54
2019-03-04T12:37:20.417Z,26.12
2019-03-04T12:39:46.606Z,27.02
2019-03-04T12:42:13.018Z,27.49
2019-03-04T12:44:39.174Z,28.17
2019-03-04T12:47:05.371Z,29.18
2019-03-04T12:49:31.524Z,30.49
2019-03-04T12:51:57.692Z,29.36
2019-03-04T12:54:23.877Z,27.70
2019-03-04T12:56:50.136Z,28.31
2019-03-04T12:59:16.294Z,30.33
2019-03-04T13:01:42.489Z,28.33
2019-03-04T13:04:08.653Z,28.50
2019-03-04T13:06:34.818Z,29.69
2019-03-04T13:09:01.021Z,28.63
2019-03-04T13:11:27.280Z,28.71
2019-03-04T13:13:53.442Z,28.86
2019-03-04T13:16:19.640Z,28.88
2019-03-04T13:18:45.801Z,28.79
2019-03-04T13:21:11.977Z,29.40
2019-03-04T13:23:38.160Z,27.50
2019-03-04T13:26:04.314Z,27.59
2019-03-04T13:28:30.472Z,26.39
2019-03-04T13:30:56.767Z,26.78
2019-03-04T13:33:22.929Z,27.26
2019-03-04T13:35:49.081Z,28.10
2019-03-04T13:38:15.284Z,27.39
2019-03-04T13:40:41.840Z,28.56
2019-03-04T13:43:07.997Z,29.64
2019-03-04T13:45:34.292Z,28.06
2019-03-04T13:48:00.556Z,29.55
2019-03-04T13:50:30.589Z,29.55
2019-03-04T13:52:56.980Z,29.33
2019-03-04T13:55:23.239Z,29.73
2019-03-04T13:57:49.513Z,29.48
2019-03-04T14:00:18.911Z,29.55
2019-03-04T14:02:45.182Z,30.51
2019-03-04T14:05:14.055Z,29.43
2019-03-04T14:07:40.245Z,29.18
2019-03-04T14:10:31.176Z,28.68
2019-03-04T14:12:57.486Z,28.12
2019-03-04T14:15:53.100Z,28.97
2019-03-04T14:18:19.393Z,28.99
2019-03-04T14:20:45.560Z,29.14
2019-03-04T14:23:11.738Z,29.00
2019-03-04T14:25:38.028Z,28.46
2019-03-04T14:28:04.291Z,27.00
2019-03-04T14:30:30.451Z,28.23
2019-03-04T14:32:56.642Z,27.95
2019-03-04T14:35:22.805Z,26.52
2019-03-04T14:37:48.972Z,27.16
2019-03-04T14:40:16.476Z,27.53
2019-03-04T14:42:42.631Z,27.89
2019-03-04T14:45:17.734Z,26.72
2019-03-04T14:47:43.925Z,26.65
2019-03-04T14:50:38.956Z,27.38
2019-03-04T14:53:05.266Z,27.91
2019-03-04T14:55:37.296Z,26.93
2019-03-04T14:58:03.456Z,26.18
2019-03-04T15:00:33.057Z,26.66
2019-03-04T15:02:59.217Z,27.30
2019-03-04T15:05:25.490Z,27.41
2019-03-04T15:07:51.778Z,27.79
2019-03-04T15:10:17.957Z,27.83
2019-03-04T15:12:44.120Z,26.64
2019-03-04T15:15:21.656Z,26.90
2019-03-04T15:17:47.830Z,26.29
2019-03-04T15:20:19.776Z,26.78
2019-03-04T15:22:45.969Z,27.19
2019-03-04T15:25:20.993Z,27.69
2019-03-04T15:27:46.833Z,27.94
2019-03-04T15:30:13.126Z,27.86
2019-03-04T15:32:39.289Z,28.05
2019-03-04T15:35:07.754Z,28.22
2019-03-04T15:37:34.062Z,28.06
2019-03-04T15:40:00.283Z,27.78
2019-03-04T15:42:26.571Z,27.48
2019-03-04T15:44:52.772Z,27.29
2019-03-04T15:47:19.035Z,26.95
2019-03-04T15:49:45.191Z,26.72
2019-03-04T15:52:11.496Z,26.43
2019-03-04T15:54:37.664Z,26.05
2019-03-04T15:57:04.430Z,25.86
2019-03-04T15:59:30.827Z,25.47
2019-03-04T16:02:00.712Z,24.74
2019-03-04T16:04:26.973Z,24.81
2019-03-04T16:06:53.169Z,24.90
2019-03-04T16:09:20.537Z,24.81
2019-03-04T16:11:46.808Z,24.64
2019-03-04T16:14:12.990Z,24.45
2019-03-04T16:16:39.157Z,24.27
2019-03-04T16:19:05.326Z,24.24
2019-03-04T16:21:31.524Z,24.19
2019-03-04T16:23:57.690Z,23.99
2019-03-04T16:26:23.944Z,23.98
2019-03-04T16:28:50.252Z,23.27
2019-03-04T16:31:16.408Z,22.16
2019-03-04T16:33:42.976Z,22.45
2019-03-04T16:36:09.172Z,22.61
2019-03-04T16:38:35.339Z,22.68
2019-03-04T16:41:01.501Z,22.83
2019-03-04T16:43:27.691Z,22.58
2019-03-04T16:45:53.943Z,22.57
2019-03-04T16:48:20.113Z,22.39
2019-03-04T16:50:46.705Z,22.15
2019-03-04T16:53:25.284Z,21.28
2019-03-04T16:55:51.957Z,21.02
2019-03-04T16:58:18.132Z,21.46
2019-03-04T17:13:25.873Z,22.87
2019-03-04T17:15:52.061Z,22.56
2019-03-04T17:18:18.335Z,22.89
2019-03-04T17:20:44.640Z,22.65
2019-03-04T17:23:10.813Z,22.21
2019-03-04T17:25:37.466Z,22.36
2019-03-04T17:28:03.762Z,22.32
2019-03-04T17:30:30.037Z,22.30
2019-03-04T17:32:56.203Z,22.20
2019-03-04T17:35:23.486Z,22.15
2019-03-04T17:37:50.567Z,21.74
2019-03-04T17:40:25.044Z,21.85
2019-03-04T17:46:16.557Z,21.78
2019-03-04T17:48:42.722Z,21.71
2019-03-04T17:51:08.994Z,21.47
2019-03-04T17:53:35.309Z,21.41
2019-03-04T17:56:01.578Z,21.34
2019-03-04T17:58:27.841Z,21.75
2019-03-04T18:00:55.889Z,20.75
2019-03-04T18:03:22.168Z,21.24
2019-03-04T18:05:48.443Z,21.50
2019-03-04T18:08:14.646Z,20.55
2019-03-04T18:10:41.852Z,20.88
2019-03-04T18:16:53.948Z,21.06
2019-03-04T18:19:20.107Z,21.03
2019-03-04T18:21:46.392Z,20.40
2019-03-04T18:24:12.571Z,20.79
2019-03-04T18:26:41.140Z,20.37
2019-03-04T18:29:38.143Z,20.21
2019-03-04T18:32:16.747Z,21.00
2019-03-04T18:35:29.076Z,21.11
2019-03-04T18:38:17.096Z,21.56
2019-03-04T18:40:49.703Z,20.84
2019-03-04T18:43:28.495Z,21.35
2019-03-04T18:46:15.183Z,21.85
2019-03-04T18:48:54.867Z,20.72
2019-03-04T19:05:06.986Z,19.94
2019-03-04T19:07:33.171Z,20.15
2019-03-04T19:09:59.334Z,19.64
2019-03-04T19:12:25.566Z,19.73
2019-03-04T19:14:51.831Z,19.86
2019-03-04T19:17:18.086Z,20.15
2019-03-04T19:19:44.285Z,19.69
2019-03-04T19:22:12.387Z,19.48
2019-03-04T19:24:38.526Z,19.59
2019-03-04T19:27:04.727Z,19.68
2019-03-04T19:29:31.237Z,20.22
2019-03-04T19:35:36.289Z,20.01
2019-03-04T19:38:02.458Z,19.47
2019-03-04T19:40:28.933Z,19.57
2019-03-04T19:42:55.144Z,19.79
2019-03-04T19:45:21.303Z,19.41
2019-03-04T19:47:47.572Z,19.54
2019-03-04T19:50:14.973Z,20.14
2019-03-04T19:52:43.911Z,19.75
2019-03-04T19:55:12.719Z,20.37
2019-03-04T19:57:39.503Z,20.23
2019-03-04T20:00:18.934Z,19.66
2019-03-04T20:02:45.330Z,20.46
2019-03-04T20:05:11.653Z,19.83
2019-03-04T20:07:37.819Z,20.61
2019-03-04T20:10:08.020Z,20.40
2019-03-04T20:12:34.271Z,19.96
2019-03-04T20:15:00.536Z,20.33
2019-03-04T20:17:26.851Z,20.35
2019-03-04T20:19:53.017Z,19.66
2019-03-04T20:22:19.207Z,19.53
2019-03-04T20:24:45.493Z,19.36
2019-03-04T20:27:11.760Z,19.35
2019-03-04T20:29:37.922Z,19.37
2019-03-04T20:32:04.123Z,19.94
2019-03-04T20:34:30.292Z,19.24
2019-03-04T20:36:56.466Z,19.09
2019-03-04T20:39:22.848Z,19.17
2019-03-04T20:41:49.020Z,19.38
2019-03-04T20:44:15.191Z,19.73
2019-03-04T20:46:41.404Z,19.32
2019-03-04T20:49:07.614Z,19.22
2019-03-04T20:51:33.834Z,19.16
2019-03-04T20:54:00.036Z,18.82
2019-03-04T20:56:26.308Z,18.86
2019-03-04T20:58:52.507Z,19.24
2019-03-04T21:01:19.172Z,19.20
2019-03-04T21:03:45.442Z,19.25
2019-03-04T21:06:11.764Z,19.53
2019-03-04T21:08:38.060Z,19.29
2019-03-04T21:11:04.236Z,19.76
2019-03-04T21:13:35.940Z,20.39
2019-03-04T21:15:58.503Z,20.74
2019-03-04T21:18:24.845Z,20.46
2019-03-04T21:20:51.009Z,20.64
2019-03-04T21:23:17.314Z,20.32
2019-03-04T21:26:10.913Z,19.36
2019-03-04T21:28:55.492Z,19.45
2019-03-04T21:31:40.299Z,19.40
2019-03-04T21:34:11.311Z,19.14
2019-03-04T21:36:53.480Z,19.23
2019-03-04T21:39:27.842Z,19.43
2019-03-04T21:42:06.740Z,19.28
2019-03-04T21:44:54.823Z,18.76
2019-03-04T21:47:25.006Z,19.61
2019-03-04T21:49:51.567Z,19.76
2019-03-04T21:56:23.182Z,19.61
2019-03-04T21:58:49.350Z,19.86
2019-03-04T22:01:22.228Z,19.90
2019-03-04T22:03:48.577Z,19.59
2019-03-04T22:06:14.907Z,19.48
2019-03-04T22:08:41.212Z,19.98
2019-03-04T22:11:07.550Z,19.68
2019-03-04T22:13:33.837Z,20.79
2019-03-04T22:16:01.906Z,20.37
2019-03-04T22:18:28.221Z,21.07
2019-03-04T22:20:54.514Z,20.65
2019-03-04T22:23:20.826Z,20.69
2019-03-04T22:26:01.599Z,21.06
2019-03-04T22:28:22.235Z,20.73
2019-03-04T22:30:48.539Z,20.77
2019-03-04T22:33:14.887Z,19.83
2019-03-04T22:35:41.151Z,20.48
2019-03-04T22:38:07.451Z,21.17
2019-03-04T22:40:33.775Z,20.97
2019-03-04T22:43:00.076Z,20.11
2019-03-04T22:45:26.366Z,21.12
2019-03-04T22:47:52.712Z,21.10
2019-03-04T22:50:20.608Z,20.70
2019-03-04T22:52:46.905Z,20.31
2019-03-04T22:55:16.158Z,20.58
2019-03-04T22:57:42.436Z,19.53
2019-03-04T23:00:38.685Z,20.44
2019-03-04T23:03:04.972Z,20.68
2019-03-04T23:05:31.266Z,20.12
2019-03-04T23:07:57.522Z,20.19
2019-03-04T23:10:24.210Z,20.12
2019-03-04T23:12:51.204Z,20.15
2019-03-04T23:15:22.431Z,19.45
2019-03-04T23:17:48.717Z,19.54
2019-03-04T23:20:15.020Z,19.40
2019-03-04T23:22:41.367Z,19.28
2019-03-04T23:25:10.948Z,19.69
2019-03-04T23:27:37.244Z,19.95
2019-03-04T23:30:09.881Z,19.87
2019-03-04T23:32:36.172Z,20.13
2019-03-04T23:35:02.672Z,19.92
2019-03-04T23:37:29.023Z,19.98
2019-03-04T23:39:55.219Z,20.66
2019-03-04T23:42:21.509Z,20.03
2019-03-04T23:44:47.700Z,20.78
2019-03-04T23:47:14.000Z,20.64
2019-03-04T23:49:40.173Z,20.24
2019-03-04T23:52:06.486Z,20.22
2019-03-04T23:54:32.676Z,20.16
2019-03-04T23:56:58.958Z,19.84
2019-03-04T23:59:25.173Z,19.75
